sensor_id;sensor_type;location;lat;lon;timestamp;P1;durP1;ratioP1;P2;durP2;ratioP2
46983;SDS011;34732;52.112;9.366;2024-03-23T13:05:26;3.25;;;3.00;;
46983;SDS011;34732;52.112;9.366;2024-03-23T13:08:49;2.25;;;2.25;;
46983;SDS011;34732;52.112;9.366;2024-03-23T13:12:11;2.00;;;2.00;;
46983;SDS011;34732;52.112;9.366;2024-03-23T13:15:37;3.00;;;3.00;;
46983;SDS011;34732;52.112;9.366;2024-03-23T13:18:58;1.25;;;1.25;;
46983;SDS011;34732;52.112;9.366;2024-03-23T13:22:21;2.00;;;1.75;;
46983;SDS011;34732;52.112;9.366;2024-03-23T13:25:49;1.25;;;1.25;;
46983;SDS011;34732;52.112;9.366;2024-03-23T13:29:17;1.00;;;1.00;;
46983;SDS011;34732;52.112;9.366;2024-03-23T13:32:43;1.75;;;1.75;;
46983;SDS011;34732;52.112;9.366;2024-03-23T13:36:09;1.75;;;1.75;;
46983;SDS011;34732;52.112;9.366;2024-03-23T13:39:30;1.00;;;1.00;;
46983;SDS011;34732;52.112;9.366;2024-03-23T13:42:51;3.00;;;1.50;;
46983;SDS011;34732;52.112;9.366;2024-03-23T13:46:17;1.00;;;1.00;;
46983;SDS011;34732;52.112;9.366;2024-03-23T13:49:40;2.50;;;2.00;;
46983;SDS011;34732;52.112;9.366;2024-03-23T13:53:07;2.00;;;2.00;;
46983;SDS011;34732;52.112;9.366;2024-03-23T13:56:31;3.00;;;3.00;;
46983;SDS011;34732;52.112;9.366;2024-03-23T13:59:57;1.50;;;1.50;;
46983;SDS011;34732;52.112;9.366;2024-03-23T14:03:21;2.00;;;1.75;;
46983;SDS011;34732;52.112;9.366;2024-03-23T14:06:44;2.25;;;2.25;;
46983;SDS011;34732;52.112;9.366;2024-03-23T14:10:08;1.00;;;1.00;;
46983;SDS011;34732;52.112;9.366;2024-03-23T14:13:33;2.00;;;2.00;;
46983;SDS011;34732;52.112;9.366;2024-03-23T14:16:57;2.00;;;2.00;;
46983;SDS011;34732;52.112;9.366;2024-03-23T14:20:18;1.67;;;1.67;;
46983;SDS011;34732;52.112;9.366;2024-03-23T14:23:45;3.00;;;2.00;;
46983;SDS011;34732;52.112;9.366;2024-03-23T14:27:08;2.75;;;2.50;;
46983;SDS011;34732;52.112;9.366;2024-03-23T14:30:32;1.00;;;1.00;;
46983;SDS011;34732;52.112;9.366;2024-03-23T14:33:53;2.00;;;1.75;;
46983;SDS011;34732;52.112;9.366;2024-03-23T14:37:17;1.00;;;1.00;;
46983;SDS011;34732;52.112;9.366;2024-03-23T14:40:41;1.00;;;1.00;;
46983;SDS011;34732;52.112;9.366;2024-03-23T14:44:04;1.25;;;1.25;;
46983;SDS011;34732;52.112;9.366;2024-03-23T14:47:26;2.00;;;2.00;;
46983;SDS011;34732;52.112;9.366;2024-03-23T14:50:47;1.00;;;1.00;;
46983;SDS011;34732;52.112;9.366;2024-03-23T14:54:15;1.75;;;1.75;;
46983;SDS011;34732;52.112;9.366;2024-03-23T14:57:36;1.00;;;1.00;;
46983;SDS011;34732;52.112;9.366;2024-03-23T15:01:00;2.00;;;2.00;;
46983;SDS011;34732;52.112;9.366;2024-03-23T15:04:28;2.00;;;2.00;;
46983;SDS011;34732;52.112;9.366;2024-03-23T15:07:52;1.50;;;1.25;;
46983;SDS011;34732;52.112;9.366;2024-03-23T15:11:13;3.50;;;1.75;;
46983;SDS011;34732;52.112;9.366;2024-03-23T15:14:34;2.25;;;1.00;;
46983;SDS011;34732;52.112;9.366;2024-03-23T15:18:00;1.25;;;1.25;;
46983;SDS011;34732;52.112;9.366;2024-03-23T15:21:24;2.75;;;2.75;;
46983;SDS011;34732;52.112;9.366;2024-03-23T15:24:52;1.00;;;1.00;;
46983;SDS011;34732;52.112;9.366;2024-03-23T15:28:13;0.50;;;0.50;;
46983;SDS011;34732;52.112;9.366;2024-03-23T15:31:37;1.00;;;1.00;;
46983;SDS011;34732;52.112;9.366;2024-03-23T15:34:58;1.25;;;1.25;;
46983;SDS011;34732;52.112;9.366;2024-03-23T15:38:19;2.00;;;2.00;;
46983;SDS011;34732;52.112;9.366;2024-03-23T15:41:46;0.00;;;0.00;;
46983;SDS011;34732;52.112;9.366;2024-03-23T15:45:12;1.00;;;1.00;;
46983;SDS011;34732;52.112;9.366;2024-03-23T15:48:38;1.00;;;1.00;;
46983;SDS011;34732;52.112;9.366;2024-03-23T15:52:09;1.00;;;1.00;;
46983;SDS011;34732;52.112;9.366;2024-03-23T15:55:33;3.00;;;2.00;;
46983;SDS011;34732;52.112;9.366;2024-03-23T15:59:01;2.00;;;2.00;;
46983;SDS011;34732;52.112;9.366;2024-03-23T16:02:30;2.25;;;2.25;;
46983;SDS011;34732;52.112;9.366;2024-03-23T16:05:58;1.00;;;1.00;;
46983;SDS011;34732;52.112;9.366;2024-03-23T16:09:31;1.50;;;1.50;;
46983;SDS011;34732;52.112;9.366;2024-03-23T16:12:54;0.00;;;0.00;;
46983;SDS011;34732;52.112;9.366;2024-03-23T16:16:18;2.00;;;1.00;;
46983;SDS011;34732;52.112;9.366;2024-03-23T16:19:44;2.00;;;1.00;;
46983;SDS011;34732;52.112;9.366;2024-03-23T16:23:07;1.00;;;1.00;;
46983;SDS011;34732;52.112;9.366;2024-03-23T16:26:31;1.00;;;1.00;;
46983;SDS011;34732;52.112;9.366;2024-03-23T16:29:54;1.00;;;1.00;;
46983;SDS011;34732;52.112;9.366;2024-03-23T16:33:22;1.50;;;1.00;;
46983;SDS011;34732;52.112;9.366;2024-03-23T16:36:46;1.50;;;1.50;;
46983;SDS011;34732;52.112;9.366;2024-03-23T16:40:10;0.00;;;0.00;;
46983;SDS011;34732;52.112;9.366;2024-03-23T16:43:35;1.00;;;1.00;;
46983;SDS011;34732;52.112;9.366;2024-03-23T16:47:02;0.00;;;0.00;;
46983;SDS011;34732;52.112;9.366;2024-03-23T16:50:29;1.00;;;1.00;;
46983;SDS011;34732;52.112;9.366;2024-03-23T16:53:50;1.50;;;1.00;;
46983;SDS011;34732;52.112;9.366;2024-03-23T16:57:19;2.50;;;2.50;;
46983;SDS011;34732;52.112;9.366;2024-03-23T17:00:44;3.50;;;3.00;;
46983;SDS011;34732;52.112;9.366;2024-03-23T17:04:06;1.00;;;1.00;;
46983;SDS011;34732;52.112;9.366;2024-03-23T17:07:31;2.50;;;2.00;;
46983;SDS011;34732;52.112;9.366;2024-03-23T17:10:59;3.00;;;3.00;;
46983;SDS011;34732;52.112;9.366;2024-03-23T17:14:26;1.75;;;1.75;;
46983;SDS011;34732;52.112;9.366;2024-03-23T17:17:49;3.00;;;3.00;;
46983;SDS011;34732;52.112;9.366;2024-03-23T17:21:11;2.00;;;2.00;;
46983;SDS011;34732;52.112;9.366;2024-03-23T17:24:34;2.00;;;1.00;;
46983;SDS011;34732;52.112;9.366;2024-03-23T17:28:00;1.75;;;1.75;;
46983;SDS011;34732;52.112;9.366;2024-03-23T17:31:23;3.00;;;3.00;;
46983;SDS011;34732;52.112;9.366;2024-03-23T17:34:44;3.00;;;2.00;;
46983;SDS011;34732;52.112;9.366;2024-03-23T17:38:06;1.75;;;1.75;;
46983;SDS011;34732;52.112;9.366;2024-03-23T17:41:32;2.00;;;2.00;;
46983;SDS011;34732;52.112;9.366;2024-03-23T17:44:56;0.00;;;0.00;;
46983;SDS011;34732;52.112;9.366;2024-03-23T17:48:19;1.50;;;1.00;;
46983;SDS011;34732;52.112;9.366;2024-03-23T17:51:43;1.50;;;1.00;;
46983;SDS011;34732;52.112;9.366;2024-03-23T17:55:05;2.50;;;2.50;;
46983;SDS011;34732;52.112;9.366;2024-03-23T17:58:29;3.25;;;2.00;;
46983;SDS011;34732;52.112;9.366;2024-03-23T18:01:52;3.25;;;2.50;;
46983;SDS011;34732;52.112;9.366;2024-03-23T18:05:18;1.00;;;1.00;;
46983;SDS011;34732;52.112;9.366;2024-03-23T18:08:42;0.00;;;0.00;;
46983;SDS011;34732;52.112;9.366;2024-03-23T18:12:04;2.00;;;2.00;;
46983;SDS011;34732;52.112;9.366;2024-03-23T18:15:26;1.00;;;1.00;;
46983;SDS011;34732;52.112;9.366;2024-03-23T18:18:50;2.00;;;1.75;;
46983;SDS011;34732;52.112;9.366;2024-03-23T18:22:16;1.75;;;1.00;;
46983;SDS011;34732;52.112;9.366;2024-03-23T18:25:40;1.00;;;1.00;;
46983;SDS011;34732;52.112;9.366;2024-03-23T18:29:04;0.50;;;0.00;;
46983;SDS011;34732;52.112;9.366;2024-03-23T18:32:26;1.50;;;1.25;;
46983;SDS011;34732;52.112;9.366;2024-03-23T18:35:53;1.00;;;1.00;;
46983;SDS011;34732;52.112;9.366;2024-03-23T18:39:20;1.00;;;1.00;;
46983;SDS011;34732;52.112;9.366;2024-03-23T18:42:42;1.25;;;1.25;;
46983;SDS011;34732;52.112;9.366;2024-03-23T18:46:06;1.00;;;1.00;;
46983;SDS011;34732;52.112;9.366;2024-03-23T18:49:31;1.50;;;1.00;;
46983;SDS011;34732;52.112;9.366;2024-03-23T18:52:53;2.00;;;1.75;;
46983;SDS011;34732;52.112;9.366;2024-03-23T18:56:14;4.50;;;4.00;;
46983;SDS011;34732;52.112;9.366;2024-03-23T18:59:41;4.00;;;4.00;;
46983;SDS011;34732;52.112;9.366;2024-03-23T19:03:07;7.75;;;7.00;;
46983;SDS011;34732;52.112;9.366;2024-03-23T19:06:28;10.50;;;10.00;;
46983;SDS011;34732;52.112;9.366;2024-03-23T19:09:54;9.00;;;7.50;;
46983;SDS011;34732;52.112;9.366;2024-03-23T19:13:15;10.00;;;10.00;;
46983;SDS011;34732;52.112;9.366;2024-03-23T19:16:38;8.75;;;8.75;;
46983;SDS011;34732;52.112;9.366;2024-03-23T19:20:02;8.50;;;8.50;;
46983;SDS011;34732;52.112;9.366;2024-03-23T19:23:29;11.00;;;10.25;;
46983;SDS011;34732;52.112;9.366;2024-03-23T19:26:50;9.75;;;8.75;;
46983;SDS011;34732;52.112;9.366;2024-03-23T19:30:14;10.00;;;9.25;;
46983;SDS011;34732;52.112;9.366;2024-03-23T19:33:39;10.00;;;10.00;;
46983;SDS011;34732;52.112;9.366;2024-03-23T19:37:03;9.00;;;9.00;;
46983;SDS011;34732;52.112;9.366;2024-03-23T19:40:29;12.25;;;12.25;;
46983;SDS011;34732;52.112;9.366;2024-03-23T19:43:53;10.50;;;10.00;;
46983;SDS011;34732;52.112;9.366;2024-03-23T19:47:17;9.75;;;9.75;;
46983;SDS011;34732;52.112;9.366;2024-03-23T19:54:34;11.25;;;11.00;;
